createdAt,value
2018-09-24T00:02:23.599Z,60.36
2018-09-24T00:04:52.916Z,60.56
2018-09-24T00:07:22.273Z,60.41
2018-09-24T00:09:51.638Z,60.10
2018-09-24T00:12:21.597Z,60.96
2018-09-24T00:14:51.405Z,61.07
2018-09-24T00:17:21.045Z,60.80
2018-09-24T00:19:50.488Z,60.31
2018-09-24T00:22:20.170Z,61.33
2018-09-24T00:24:50.269Z,61.23
2018-09-24T00:27:19.879Z,61.91
2018-09-24T00:29:49.369Z,61.64
2018-09-24T00:32:19.093Z,62.45
2018-09-24T00:34:48.397Z,62.07
2018-09-24T00:37:17.916Z,61.71
2018-09-24T00:39:47.522Z,62.17
2018-09-24T00:42:17.094Z,61.58
2018-09-24T00:44:47.951Z,61.76
2018-09-24T00:47:17.811Z,62.16
2018-09-24T00:49:47.358Z,61.48
2018-09-24T00:52:16.802Z,62.30
2018-09-24T00:54:46.485Z,62.13
2018-09-24T00:57:16.187Z,62.34
2018-09-24T00:59:46.103Z,62.25
2018-09-24T01:02:15.842Z,62.10
2018-09-24T01:04:45.157Z,62.72
2018-09-24T01:07:14.775Z,62.48
2018-09-24T01:09:44.578Z,62.36
2018-09-24T01:12:14.349Z,62.81
2018-09-24T01:14:43.912Z,62.41
2018-09-24T01:17:13.586Z,63.43
2018-09-24T01:19:43.170Z,63.38
2018-09-24T01:22:12.530Z,63.12
2018-09-24T01:24:42.505Z,63.10
2018-09-24T01:27:12.051Z,63.24
2018-09-24T01:29:41.820Z,63.39
2018-09-24T01:32:11.749Z,62.85
2018-09-24T01:34:41.516Z,62.55
2018-09-24T01:37:11.358Z,62.62
2018-09-24T01:39:40.731Z,62.92
2018-09-24T01:42:10.263Z,63.72
2018-09-24T01:44:40.164Z,62.82
2018-09-24T01:47:10.107Z,63.24
2018-09-24T01:49:39.649Z,63.52
2018-09-24T01:52:09.469Z,63.94
2018-09-24T01:54:38.982Z,63.28
2018-09-24T01:57:15.424Z,63.34
2018-09-24T01:59:50.240Z,64.07
2018-09-24T02:02:19.858Z,64.76
2018-09-24T02:04:49.889Z,64.04
2018-09-24T02:07:19.647Z,64.05
2018-09-24T02:09:49.200Z,64.35
2018-09-24T02:12:18.690Z,64.30
2018-09-24T02:14:48.393Z,64.59
2018-09-24T02:17:23.622Z,64.70
2018-09-24T02:19:53.603Z,63.98
2018-09-24T02:22:27.331Z,63.88
2018-09-24T02:24:57.870Z,65.99
2018-09-24T02:27:27.571Z,66.97
2018-09-24T02:29:57.339Z,66.63
2018-09-24T02:32:27.239Z,66.09
2018-09-24T02:34:58.307Z,66.07
2018-09-24T02:37:28.091Z,65.76
2018-09-24T02:39:57.457Z,65.76
2018-09-24T02:42:27.095Z,65.94
2018-09-24T02:44:58.158Z,66.15
2018-09-24T02:47:32.026Z,65.44
2018-09-24T02:50:03.304Z,66.11
2018-09-24T02:52:32.893Z,66.63
2018-09-24T02:55:02.554Z,66.33
2018-09-24T02:57:32.474Z,67.31
2018-09-24T03:00:01.904Z,66.85
2018-09-24T03:02:31.624Z,66.59
2018-09-24T03:05:01.260Z,67.84
2018-09-24T03:07:30.825Z,67.75
2018-09-24T03:10:00.387Z,67.66
2018-09-24T03:12:30.256Z,67.61
2018-09-24T03:14:59.706Z,67.26
2018-09-24T03:17:29.369Z,66.89
2018-09-24T03:19:59.278Z,66.84
2018-09-24T03:22:28.840Z,67.02
2018-09-24T03:24:58.525Z,66.68
2018-09-24T03:27:28.620Z,66.58
2018-09-24T03:29:58.000Z,66.47
2018-09-24T03:32:27.444Z,66.64
2018-09-24T03:34:57.395Z,67.58
2018-09-24T03:37:26.969Z,67.54
2018-09-24T03:39:56.859Z,66.88
2018-09-24T03:42:26.608Z,68.21
2018-09-24T03:44:56.284Z,68.11
2018-09-24T03:47:26.091Z,67.97
2018-09-24T03:49:56.174Z,67.52
2018-09-24T03:52:25.959Z,67.76
2018-09-24T03:54:55.948Z,68.03
2018-09-24T03:57:26.115Z,68.91
2018-09-24T03:59:55.692Z,68.53
2018-09-24T04:02:25.149Z,68.21
2018-09-24T04:05:00.018Z,69.01
2018-09-24T04:07:34.776Z,68.65
2018-09-24T04:10:09.374Z,68.54
2018-09-24T04:12:44.253Z,68.56
2018-09-24T04:15:19.176Z,69.29
2018-09-24T04:17:54.040Z,68.85
2018-09-24T04:20:29.241Z,68.63
2018-09-24T04:23:03.991Z,69.31
2018-09-24T04:25:38.582Z,69.65
2018-09-24T04:28:13.070Z,69.14
2018-09-24T04:30:47.805Z,68.88
2018-09-24T04:33:22.405Z,68.58
2018-09-24T04:35:57.706Z,68.26
2018-09-24T04:38:32.503Z,68.03
2018-09-24T04:41:07.902Z,67.80
2018-09-24T04:43:42.419Z,67.84
2018-09-24T04:46:17.531Z,67.78
2018-09-24T04:48:52.126Z,68.04
2018-09-24T04:51:27.286Z,67.59
2018-09-24T04:54:01.898Z,67.40
2018-09-24T04:56:36.758Z,67.30
2018-09-24T04:59:11.491Z,67.49
2018-09-24T05:01:45.967Z,67.36
2018-09-24T05:04:20.534Z,66.84
2018-09-24T05:06:55.403Z,66.91
2018-09-24T05:09:30.507Z,66.52
2018-09-24T05:12:05.654Z,66.13
2018-09-24T05:14:40.180Z,66.03
2018-09-24T05:17:14.765Z,66.44
2018-09-24T05:19:49.293Z,66.17
2018-09-24T05:22:24.393Z,66.63
2018-09-24T05:24:58.937Z,66.84
2018-09-24T05:27:33.575Z,65.85
2018-09-24T05:30:08.371Z,66.22
2018-09-24T05:32:43.003Z,66.03
2018-09-24T05:35:17.753Z,65.23
2018-09-24T05:37:53.069Z,65.18
2018-09-24T05:40:27.771Z,65.42
2018-09-24T05:43:02.599Z,64.70
2018-09-24T05:45:37.229Z,65.21
2018-09-24T05:48:12.140Z,65.21
2018-09-24T05:50:46.887Z,65.10
2018-09-24T05:53:21.718Z,64.26
2018-09-24T05:55:56.155Z,64.15
2018-09-24T05:58:31.780Z,64.20
2018-09-24T06:01:06.422Z,63.73
2018-09-24T06:03:41.337Z,63.60
2018-09-24T06:06:16.085Z,64.04
2018-09-24T06:08:51.107Z,64.17
2018-09-24T06:11:25.815Z,63.80
2018-09-24T06:14:00.775Z,63.23
2018-09-24T06:16:36.394Z,63.01
2018-09-24T06:19:11.411Z,62.51
2018-09-24T06:21:45.989Z,62.44
2018-09-24T06:24:21.027Z,63.24
2018-09-24T06:26:56.082Z,62.29
2018-09-24T06:29:30.707Z,62.02
2018-09-24T06:32:05.348Z,62.05
2018-09-24T06:34:40.441Z,62.04
2018-09-24T06:37:15.215Z,60.89
2018-09-24T06:39:50.931Z,61.76
2018-09-24T06:42:25.615Z,60.23
2018-09-24T06:45:00.729Z,59.93
2018-09-24T06:47:35.389Z,59.07
2018-09-24T06:50:10.571Z,59.63
2018-09-24T06:52:45.371Z,59.59
2018-09-24T06:55:20.530Z,58.93
2018-09-24T06:57:55.204Z,58.47
2018-09-24T07:00:29.835Z,57.62
2018-09-24T07:03:04.301Z,57.33
2018-09-24T07:05:39.006Z,56.77
2018-09-24T07:08:13.511Z,57.12
2018-09-24T07:10:48.412Z,57.92
2018-09-24T07:13:22.890Z,57.43
2018-09-24T07:15:57.764Z,56.56
2018-09-24T07:18:32.630Z,55.62
2018-09-24T07:21:07.826Z,55.21
2018-09-24T07:23:42.269Z,54.93
2018-09-24T07:26:17.227Z,55.37
2018-09-24T07:28:51.937Z,55.07
2018-09-24T07:31:27.075Z,54.42
2018-09-24T07:34:01.834Z,54.92
2018-09-24T07:36:37.094Z,54.27
2018-09-24T07:39:14.619Z,53.66
2018-09-24T07:41:49.751Z,53.88
2018-09-24T07:44:24.313Z,52.95
2018-09-24T07:46:59.186Z,52.39
2018-09-24T07:49:33.742Z,52.57
2018-09-24T07:52:09.333Z,51.99
2018-09-24T07:54:43.910Z,51.03
2018-09-24T07:57:18.903Z,51.37
2018-09-24T07:59:53.470Z,50.94
2018-09-24T08:02:28.446Z,49.55
2018-09-24T08:05:03.031Z,50.30
2018-09-24T08:07:37.986Z,49.31
2018-09-24T08:10:12.560Z,50.39
2018-09-24T08:12:47.613Z,49.40
2018-09-24T08:15:22.501Z,48.58
2018-09-24T08:17:57.318Z,49.29
2018-09-24T08:20:32.231Z,49.59
2018-09-24T08:23:07.452Z,49.13
2018-09-24T08:25:42.226Z,47.26
2018-09-24T08:28:16.939Z,48.62
2018-09-24T08:30:51.331Z,48.31
2018-09-24T08:33:26.243Z,47.61
2018-09-24T08:36:01.174Z,47.28
2018-09-24T08:38:36.228Z,47.02
2018-09-24T08:41:11.319Z,46.58
2018-09-24T08:43:46.570Z,46.00
2018-09-24T08:46:21.214Z,45.35
2018-09-24T08:48:56.151Z,45.82
2018-09-24T08:51:30.653Z,46.11
2018-09-24T08:54:05.611Z,44.87
2018-09-24T08:56:40.384Z,44.76
2018-09-24T08:59:15.010Z,43.86
2018-09-24T09:01:49.897Z,43.69
2018-09-24T09:04:24.572Z,42.74
2018-09-24T09:06:59.228Z,42.27
2018-09-24T09:09:33.772Z,41.96
2018-09-24T09:12:08.545Z,40.88
2018-09-24T09:14:43.599Z,39.71
2018-09-24T09:17:18.475Z,39.33
2018-09-24T09:19:53.420Z,38.87
2018-09-24T09:22:28.270Z,39.50
2018-09-24T09:25:03.161Z,38.42
2018-09-24T09:27:37.806Z,37.24
2018-09-24T09:30:13.598Z,36.21
2018-09-24T09:32:48.251Z,37.00
2018-09-24T09:35:23.180Z,36.24
2018-09-24T09:37:58.126Z,36.05
2018-09-24T09:40:32.674Z,35.90
2018-09-24T09:43:07.444Z,35.53
2018-09-24T09:45:42.332Z,35.15
2018-09-24T09:48:17.058Z,34.18
2018-09-24T09:50:51.744Z,34.31
2018-09-24T09:53:26.604Z,33.62
2018-09-24T09:56:01.243Z,34.35
2018-09-24T09:58:35.859Z,33.62
2018-09-24T10:01:10.981Z,32.92
2018-09-24T10:03:45.916Z,32.54
2018-09-24T10:06:20.952Z,32.29
2018-09-24T10:08:55.742Z,32.87
2018-09-24T10:11:30.653Z,33.27
2018-09-24T10:14:05.342Z,32.43
2018-09-24T10:16:40.507Z,31.69
2018-09-24T10:19:15.309Z,32.39
2018-09-24T10:21:50.184Z,32.30
2018-09-24T10:24:24.965Z,32.75
2018-09-24T10:26:59.701Z,32.06
2018-09-24T10:29:34.499Z,31.37
2018-09-24T10:32:09.502Z,32.04
2018-09-24T10:34:43.900Z,32.52
2018-09-24T10:37:19.005Z,32.96
2018-09-24T10:39:53.727Z,32.00
2018-09-24T10:42:28.484Z,31.59
2018-09-24T10:45:03.368Z,32.47
2018-09-24T10:47:38.106Z,30.81
2018-09-24T10:50:12.986Z,29.24
2018-09-24T10:52:47.619Z,28.96
2018-09-24T10:55:22.982Z,28.46
2018-09-24T10:57:57.793Z,28.10
2018-09-24T11:00:32.186Z,27.31
2018-09-24T11:03:07.026Z,26.51
2018-09-24T11:05:41.490Z,25.10
2018-09-24T11:08:16.329Z,25.38
2018-09-24T11:10:50.930Z,25.86
2018-09-24T11:13:26.287Z,25.17
2018-09-24T11:16:01.170Z,24.34
2018-09-24T11:18:36.279Z,24.47
2018-09-24T11:21:10.998Z,24.33
2018-09-24T11:23:46.413Z,24.93
2018-09-24T11:28:56.070Z,25.31
2018-09-24T11:31:30.885Z,25.78
2018-09-24T11:34:05.631Z,24.68
2018-09-24T11:36:40.205Z,25.51
2018-09-24T11:39:15.411Z,26.14
2018-09-24T11:41:50.175Z,25.70
2018-09-24T11:44:25.047Z,26.50
2018-09-24T11:46:59.935Z,28.41
2018-09-24T11:49:34.950Z,29.06
2018-09-24T11:52:09.595Z,29.87
2018-09-24T11:54:44.433Z,30.29
2018-09-24T11:57:19.217Z,31.46
2018-09-24T11:59:53.820Z,34.57
2018-09-24T12:02:28.458Z,36.27
2018-09-24T12:05:03.524Z,36.29
2018-09-24T12:07:38.133Z,37.65
2018-09-24T12:10:13.398Z,38.80
2018-09-24T12:12:48.078Z,40.00
2018-09-24T12:15:22.751Z,39.86
2018-09-24T12:17:57.442Z,40.91
2018-09-24T12:20:32.566Z,41.19
2018-09-24T12:23:07.133Z,41.09
2018-09-24T12:25:41.851Z,41.47
2018-09-24T12:28:16.433Z,40.22
2018-09-24T12:30:51.185Z,39.65
2018-09-24T12:33:25.778Z,38.38
2018-09-24T12:36:00.415Z,38.93
2018-09-24T12:38:35.045Z,40.22
2018-09-24T12:41:10.232Z,40.44
2018-09-24T12:43:44.824Z,41.25
2018-09-24T12:46:19.763Z,41.34
2018-09-24T12:48:54.555Z,42.06
2018-09-24T12:51:29.572Z,43.14
2018-09-24T12:54:03.986Z,43.70
2018-09-24T12:56:38.990Z,43.72
2018-09-24T12:59:13.533Z,42.85
2018-09-24T13:01:48.231Z,42.07
2018-09-24T13:04:22.714Z,41.26
2018-09-24T13:06:58.117Z,41.41
2018-09-24T13:09:32.616Z,41.17
2018-09-24T13:12:07.470Z,40.86
2018-09-24T13:14:42.276Z,40.97
2018-09-24T13:17:17.270Z,41.56
2018-09-24T13:19:51.759Z,42.51
2018-09-24T13:22:26.518Z,41.74
2018-09-24T13:25:01.037Z,41.18
2018-09-24T13:27:35.881Z,41.53
2018-09-24T13:30:10.824Z,41.12
2018-09-24T13:32:45.939Z,41.99
2018-09-24T13:35:20.699Z,42.47
2018-09-24T13:37:55.766Z,43.08
2018-09-24T13:40:30.683Z,44.10
2018-09-24T13:43:06.003Z,44.63
2018-09-24T13:45:40.680Z,44.32
2018-09-24T13:48:16.000Z,43.46
2018-09-24T13:50:50.827Z,43.76
2018-09-24T13:53:25.731Z,44.95
2018-09-24T13:56:00.424Z,45.43
2018-09-24T13:58:35.126Z,46.21
2018-09-24T14:01:09.709Z,46.19
2018-09-24T14:03:44.359Z,44.96
2018-09-24T14:06:18.792Z,44.55
2018-09-24T14:08:53.400Z,44.34
2018-09-24T14:11:28.349Z,44.46
2018-09-24T14:14:03.486Z,44.13
2018-09-24T14:16:39.232Z,43.52
2018-09-24T14:19:14.575Z,42.34
2018-09-24T14:21:49.340Z,42.17
2018-09-24T14:24:24.267Z,43.01
2018-09-24T14:26:58.931Z,44.34
2018-09-24T14:29:34.114Z,44.32
2018-09-24T14:32:08.739Z,44.93
2018-09-24T14:34:43.558Z,44.28
2018-09-24T14:37:17.959Z,45.03
2018-09-24T14:39:52.422Z,44.93
2018-09-24T14:42:27.267Z,46.61
2018-09-24T14:45:02.327Z,47.60
2018-09-24T14:47:36.937Z,49.43
2018-09-24T14:50:12.699Z,50.72
2018-09-24T14:52:47.434Z,51.76
2018-09-24T14:55:22.417Z,51.57
2018-09-24T14:57:57.254Z,51.24
2018-09-24T15:00:32.525Z,51.84
2018-09-24T15:03:07.468Z,51.84
2018-09-24T15:05:42.597Z,51.78
2018-09-24T15:08:17.427Z,51.34
2018-09-24T15:10:52.312Z,51.82
2018-09-24T15:13:27.192Z,51.30
2018-09-24T15:16:02.065Z,52.21
2018-09-24T15:18:36.759Z,53.29
2018-09-24T15:21:11.837Z,52.67
2018-09-24T15:23:46.756Z,52.11
2018-09-24T15:26:21.414Z,52.40
2018-09-24T15:28:55.965Z,53.80
2018-09-24T15:31:30.629Z,52.79
2018-09-24T15:34:05.622Z,53.46
2018-09-24T15:36:40.216Z,54.14
2018-09-24T15:39:15.244Z,55.51
2018-09-24T15:41:50.326Z,54.93
2018-09-24T15:44:25.158Z,55.50
2018-09-24T15:46:59.837Z,56.33
2018-09-24T15:49:34.693Z,56.91
2018-09-24T15:52:09.365Z,56.81
2018-09-24T15:54:44.007Z,58.83
2018-09-24T15:57:19.131Z,56.19
2018-09-24T15:59:54.151Z,56.17
2018-09-24T16:02:29.087Z,56.34
2018-09-24T16:05:04.450Z,56.79
2018-09-24T16:07:40.981Z,56.64
2018-09-24T16:10:15.932Z,57.36
2018-09-24T16:12:51.002Z,56.88
2018-09-24T16:15:25.553Z,56.99
2018-09-24T16:18:00.838Z,57.16
2018-09-24T16:20:35.692Z,57.57
2018-09-24T16:23:10.907Z,61.17
2018-09-24T16:25:45.534Z,56.81
2018-09-24T16:28:20.783Z,56.85
2018-09-24T16:30:55.322Z,57.04
2018-09-24T16:33:30.334Z,57.23
2018-09-24T16:36:05.023Z,57.27
2018-09-24T16:38:39.967Z,57.53
2018-09-24T16:41:14.729Z,58.13
2018-09-24T16:43:49.574Z,58.47
2018-09-24T16:46:24.061Z,58.97
2018-09-24T16:48:58.447Z,58.98
2018-09-24T16:51:33.088Z,59.09
2018-09-24T16:54:07.953Z,58.43
2018-09-24T16:56:42.419Z,58.28
2018-09-24T16:59:17.249Z,58.92
2018-09-24T17:01:51.757Z,59.28
2018-09-24T17:04:26.397Z,58.54
2018-09-24T17:07:00.956Z,59.50
2018-09-24T17:09:36.026Z,59.27
2018-09-24T17:12:10.966Z,59.56
2018-09-24T17:14:45.774Z,59.68
2018-09-24T17:17:20.301Z,59.43
2018-09-24T17:19:55.244Z,59.92
2018-09-24T17:22:29.929Z,59.77
2018-09-24T17:25:04.879Z,59.90
2018-09-24T17:27:39.323Z,60.09
2018-09-24T17:30:14.746Z,60.12
2018-09-24T17:32:49.372Z,60.43
2018-09-24T17:35:24.443Z,60.99
2018-09-24T17:37:59.201Z,61.30
2018-09-24T17:40:34.231Z,61.45
2018-09-24T17:43:09.015Z,61.71
2018-09-24T17:45:44.175Z,61.94
2018-09-24T17:48:19.455Z,61.58
2018-09-24T17:50:54.729Z,60.79
2018-09-24T17:53:29.670Z,60.63
2018-09-24T17:56:04.370Z,60.66
2018-09-24T17:58:38.899Z,60.21
2018-09-24T18:01:13.639Z,60.08
2018-09-24T18:03:48.349Z,60.08
2018-09-24T18:06:23.118Z,60.17
2018-09-24T18:08:58.011Z,59.62
2018-09-24T18:11:33.072Z,59.47
2018-09-24T18:14:07.757Z,59.99
2018-09-24T18:16:42.536Z,59.75
2018-09-24T18:19:17.218Z,60.06
2018-09-24T18:21:51.994Z,60.66
2018-09-24T18:24:26.462Z,60.77
2018-09-24T18:27:01.067Z,61.30
2018-09-24T18:29:35.984Z,61.01
2018-09-24T18:32:11.077Z,61.23
2018-09-24T18:34:46.035Z,61.31
2018-09-24T18:37:20.849Z,61.28
2018-09-24T18:39:55.677Z,61.01
2018-09-24T18:42:30.535Z,61.26
2018-09-24T18:45:05.177Z,61.52
2018-09-24T18:47:43.328Z,61.89
2018-09-24T18:50:17.829Z,61.69
2018-09-24T18:52:52.771Z,61.16
2018-09-24T18:55:27.252Z,61.31
2018-09-24T18:58:02.319Z,61.13
2018-09-24T19:00:37.222Z,61.92
2018-09-24T19:03:12.383Z,60.74
2018-09-24T19:05:47.061Z,60.93
2018-09-24T19:08:21.922Z,61.08
2018-09-24T19:10:56.415Z,60.84
2018-09-24T19:13:31.169Z,61.10
2018-09-24T19:16:05.780Z,61.42
2018-09-24T19:18:40.392Z,61.87
2018-09-24T19:21:14.979Z,61.66
2018-09-24T19:23:49.606Z,61.33
2018-09-24T19:26:24.277Z,62.05
2018-09-24T19:28:59.343Z,61.78
2018-09-24T19:31:34.070Z,61.61
2018-09-24T19:34:09.317Z,61.85
2018-09-24T19:36:44.113Z,62.08
2018-09-24T19:39:18.727Z,61.87
2018-09-24T19:41:53.301Z,61.76
2018-09-24T19:44:29.495Z,61.92
2018-09-24T19:47:04.249Z,62.13
2018-09-24T19:49:41.172Z,61.47
2018-09-24T19:52:15.985Z,61.47
2018-09-24T19:54:51.032Z,60.99
2018-09-24T19:57:25.654Z,61.55
2018-09-24T20:00:00.536Z,61.31
2018-09-24T20:02:35.298Z,61.36
2018-09-24T20:05:10.261Z,61.38
2018-09-24T20:07:45.120Z,61.15
2018-09-24T20:10:19.706Z,61.61
2018-09-24T20:12:54.824Z,60.96
2018-09-24T20:15:29.990Z,61.50
2018-09-24T20:18:05.036Z,61.71
2018-09-24T20:20:42.683Z,62.25
2018-09-24T20:23:17.285Z,63.32
2018-09-24T20:25:51.865Z,64.69
2018-09-24T20:28:26.676Z,66.56
2018-09-24T20:31:01.641Z,66.59
2018-09-24T20:33:35.978Z,67.41
2018-09-24T20:36:11.085Z,68.01
2018-09-24T20:38:45.895Z,67.66
2018-09-24T20:41:21.229Z,67.76
2018-09-24T20:43:56.093Z,68.26
2018-09-24T20:46:31.032Z,69.42
2018-09-24T20:49:05.822Z,70.45
2018-09-24T20:51:41.132Z,70.16
2018-09-24T20:54:15.763Z,70.58
2018-09-24T20:56:50.660Z,70.27
2018-09-24T20:59:25.531Z,70.53
2018-09-24T21:02:00.527Z,70.89
2018-09-24T21:04:35.443Z,70.79
2018-09-24T21:24:32.509Z,69.77
2018-09-24T21:27:07.200Z,69.26
2018-09-24T21:47:04.056Z,67.33
2018-09-24T21:49:38.504Z,67.39
2018-09-24T21:52:13.366Z,67.24
2018-09-24T21:54:48.060Z,66.85
2018-09-24T21:57:22.974Z,66.63
2018-09-24T21:59:57.884Z,65.91
2018-09-24T22:02:32.868Z,65.96
2018-09-24T22:05:07.722Z,65.70
2018-09-24T22:07:42.266Z,65.42
2018-09-24T22:10:16.597Z,65.76
2018-09-24T22:12:51.246Z,65.84
2018-09-24T22:32:47.341Z,66.45
2018-09-24T22:35:22.152Z,66.65
2018-09-24T22:37:56.746Z,66.52
2018-09-24T22:40:31.458Z,66.08
2018-09-24T22:43:05.850Z,66.62
2018-09-24T22:45:40.651Z,66.39
2018-09-24T22:48:15.607Z,66.16
2018-09-24T22:50:50.498Z,65.50
2018-09-24T22:53:24.946Z,65.61
2018-09-24T22:55:59.910Z,65.40
2018-09-24T22:58:34.339Z,65.36
2018-09-24T23:18:32.275Z,64.25
2018-09-24T23:21:06.859Z,64.58
2018-09-24T23:41:03.639Z,64.22
2018-09-24T23:43:38.263Z,63.77
2018-09-24T23:46:13.254Z,63.93
2018-09-24T23:48:47.747Z,63.69
2018-09-24T23:51:22.352Z,63.51
2018-09-24T23:53:57.253Z,63.41
2018-09-24T23:56:31.825Z,63.53
2018-09-24T23:59:06.448Z,63.60
